createdAt,value
2019-06-08T00:00:20.678Z,62.49
2019-06-08T00:01:20.597Z,62.41
2019-06-08T00:02:20.706Z,61.47
2019-06-08T00:03:20.723Z,61.27
2019-06-08T00:04:20.685Z,61.27
2019-06-08T00:05:21.084Z,61.68
2019-06-08T00:06:22.932Z,61.37
2019-06-08T00:07:20.928Z,60.77
2019-06-08T00:08:23.012Z,60.97
2019-06-08T00:09:22.573Z,60.97
2019-06-08T00:10:25.221Z,59.75
2019-06-08T00:11:23.459Z,61.07
2019-06-08T00:12:21.739Z,61.68
2019-06-08T00:13:23.208Z,60.57
2019-06-08T00:14:23.315Z,60.97
2019-06-08T00:15:22.357Z,61.68
2019-06-08T00:16:23.849Z,60.06
2019-06-08T00:17:34.365Z,59.95
2019-06-08T00:18:24.642Z,61.58
2019-06-08T00:19:23.672Z,60.28
2019-06-08T00:20:23.776Z,60.26
2019-06-08T00:21:24.056Z,60.36
2019-06-08T00:22:23.924Z,59.85
2019-06-08T00:23:23.975Z,59.88
2019-06-08T00:24:24.082Z,59.88
2019-06-08T00:25:24.206Z,59.25
2019-06-08T00:26:24.414Z,59.78
2019-06-08T00:27:24.637Z,60.06
2019-06-08T00:28:24.760Z,59.99
2019-06-08T00:29:25.520Z,59.58
2019-06-08T00:30:24.676Z,59.99
2019-06-08T00:31:24.892Z,60.28
2019-06-08T00:32:25.017Z,60.19
2019-06-08T00:33:25.157Z,60.19
2019-06-08T00:34:25.316Z,60.06
2019-06-08T00:35:25.455Z,60.46
2019-06-08T00:36:25.636Z,60.59
2019-06-08T00:37:25.797Z,61.20
2019-06-08T00:38:25.922Z,61.40
2019-06-08T00:39:26.076Z,61.51
2019-06-08T00:40:26.211Z,61.60
2019-06-08T00:41:26.331Z,61.30
2019-06-08T00:42:26.492Z,61.74
2019-06-08T00:43:26.616Z,62.54
2019-06-08T00:44:26.773Z,61.63
2019-06-08T00:45:26.959Z,62.65
2019-06-08T00:46:27.063Z,62.14
2019-06-08T00:47:44.993Z,62.45
2019-06-08T00:48:28.786Z,62.24
2019-06-08T00:49:29.063Z,61.83
2019-06-08T00:50:29.219Z,62.75
2019-06-08T00:51:29.697Z,61.30
2019-06-08T00:52:29.341Z,61.53
2019-06-08T00:53:29.583Z,62.04
2019-06-08T00:54:29.714Z,62.01
2019-06-08T00:55:29.865Z,62.54
2019-06-08T00:56:29.998Z,63.35
2019-06-08T00:57:30.197Z,62.85
2019-06-08T00:58:30.460Z,63.86
2019-06-08T00:59:30.425Z,63.39
2019-06-08T01:00:30.726Z,63.96
2019-06-08T01:01:30.911Z,63.39
2019-06-08T01:02:30.007Z,64.10
2019-06-08T01:03:30.197Z,64.50
2019-06-08T01:04:30.479Z,64.10
2019-06-08T01:05:30.627Z,64.00
2019-06-08T01:06:30.791Z,64.50
2019-06-08T01:07:30.974Z,64.70
2019-06-08T01:08:31.173Z,65.01
2019-06-08T01:09:31.359Z,65.01
2019-06-08T01:10:31.532Z,63.39
2019-06-08T01:11:31.697Z,63.79
2019-06-08T01:12:31.891Z,63.46
2019-06-08T01:13:32.131Z,64.91
2019-06-08T01:14:32.357Z,63.08
2019-06-08T01:15:34.270Z,63.66
2019-06-08T01:16:33.676Z,63.35
2019-06-08T01:17:32.909Z,63.86
2019-06-08T01:18:32.969Z,62.95
2019-06-08T01:19:33.192Z,63.06
2019-06-08T01:20:33.423Z,63.76
2019-06-08T01:21:33.598Z,63.08
2019-06-08T01:22:33.809Z,63.79
2019-06-08T01:23:34.041Z,63.49
2019-06-08T01:24:34.238Z,63.76
2019-06-08T01:25:34.420Z,63.39
2019-06-08T01:26:34.609Z,63.59
2019-06-08T01:27:34.783Z,64.61
2019-06-08T01:28:34.965Z,63.39
2019-06-08T01:29:35.192Z,61.25
2019-06-08T01:30:35.358Z,61.63
2019-06-08T01:31:36.526Z,61.56
2019-06-08T01:32:35.731Z,61.63
2019-06-08T01:33:35.787Z,61.43
2019-06-08T01:34:36.211Z,61.13
2019-06-08T01:35:36.134Z,61.43
2019-06-08T01:36:36.497Z,61.13
2019-06-08T01:37:36.501Z,61.16
2019-06-08T01:38:36.640Z,61.56
2019-06-08T01:39:36.834Z,61.76
2019-06-08T01:40:36.992Z,60.85
2019-06-08T01:41:37.191Z,61.16
2019-06-08T01:42:37.374Z,60.04
2019-06-08T01:43:37.524Z,60.35
2019-06-08T01:44:37.700Z,61.25
2019-06-08T01:45:37.855Z,60.04
2019-06-08T01:46:38.015Z,58.82
2019-06-08T01:47:38.218Z,59.53
2019-06-08T01:48:38.362Z,59.33
2019-06-08T01:49:38.578Z,59.03
2019-06-08T01:50:38.754Z,59.12
2019-06-08T01:51:38.940Z,60.07
2019-06-08T01:52:39.098Z,60.17
2019-06-08T01:53:39.273Z,60.47
2019-06-08T01:54:39.426Z,60.47
2019-06-08T01:55:39.679Z,60.68
2019-06-08T01:56:39.768Z,61.49
2019-06-08T01:57:39.941Z,61.18
2019-06-08T01:58:40.116Z,61.08
2019-06-08T01:59:40.263Z,60.98
2019-06-08T02:00:41.697Z,61.59
2019-06-08T02:01:41.623Z,61.29
2019-06-08T02:02:41.768Z,61.08
2019-06-08T02:03:40.903Z,61.59
2019-06-08T02:04:41.177Z,61.29
2019-06-08T02:05:41.362Z,60.58
2019-06-08T02:06:41.378Z,60.37
2019-06-08T02:07:41.555Z,60.04
2019-06-08T02:08:41.812Z,59.77
2019-06-08T02:09:41.975Z,59.86
2019-06-08T02:10:42.173Z,59.66
2019-06-08T02:11:42.414Z,59.77
2019-06-08T02:12:42.482Z,60.07
2019-06-08T02:13:42.680Z,60.30
2019-06-08T02:14:42.880Z,60.71
2019-06-08T02:15:43.103Z,59.79
2019-06-08T02:16:43.268Z,59.89
2019-06-08T02:17:43.436Z,60.30
2019-06-08T02:18:50.322Z,60.37
2019-06-08T02:19:45.843Z,60.40
2019-06-08T02:20:44.116Z,60.50
2019-06-08T02:21:44.283Z,59.79
2019-06-08T02:22:44.444Z,59.56
2019-06-08T02:23:44.688Z,60.50
2019-06-08T02:24:44.844Z,61.01
2019-06-08T02:25:45.004Z,61.41
2019-06-08T02:26:45.179Z,61.21
2019-06-08T02:27:45.394Z,60.53
2019-06-08T02:28:45.541Z,60.07
2019-06-08T02:29:45.727Z,59.46
2019-06-08T02:30:45.952Z,59.18
2019-06-08T02:31:48.167Z,60.20
2019-06-08T02:32:47.264Z,60.40
2019-06-08T02:33:46.557Z,60.10
2019-06-08T02:34:46.651Z,60.50
2019-06-08T02:35:46.902Z,60.91
2019-06-08T02:36:47.055Z,60.91
2019-06-08T02:37:48.230Z,60.81
2019-06-08T02:38:47.414Z,60.30
2019-06-08T02:39:47.546Z,60.40
2019-06-08T02:40:47.705Z,59.59
2019-06-08T02:41:47.837Z,59.56
2019-06-08T02:42:48.019Z,59.16
2019-06-08T02:43:48.130Z,59.56
2019-06-08T02:44:48.265Z,59.89
2019-06-08T02:45:48.419Z,59.46
2019-06-08T02:46:48.557Z,59.69
2019-06-08T02:47:48.837Z,59.36
2019-06-08T02:49:03.686Z,59.36
2019-06-08T02:49:51.032Z,60.88
2019-06-08T02:50:49.160Z,59.39
2019-06-08T02:51:49.382Z,59.89
2019-06-08T02:52:49.532Z,58.85
2019-06-08T02:53:49.669Z,59.36
2019-06-08T02:54:50.898Z,58.85
2019-06-08T02:55:50.014Z,58.54
2019-06-08T02:56:50.194Z,58.34
2019-06-08T02:57:50.335Z,58.45
2019-06-08T02:58:50.473Z,58.65
2019-06-08T02:59:50.662Z,58.54
2019-06-08T03:00:50.875Z,58.34
2019-06-08T03:01:52.309Z,57.73
2019-06-08T03:02:51.155Z,57.93
2019-06-08T03:03:51.441Z,57.30
2019-06-08T03:04:51.480Z,57.60
2019-06-08T03:05:51.644Z,58.04
2019-06-08T03:06:51.779Z,57.73
2019-06-08T03:07:51.908Z,57.93
2019-06-08T03:08:52.027Z,58.82
2019-06-08T03:09:52.188Z,57.73
2019-06-08T03:10:52.350Z,57.93
2019-06-08T03:11:52.505Z,58.65
2019-06-08T03:12:52.702Z,57.73
2019-06-08T03:13:52.835Z,57.93
2019-06-08T03:14:53.013Z,58.01
2019-06-08T03:15:53.337Z,57.73
2019-06-08T03:16:53.371Z,57.43
2019-06-08T03:17:53.535Z,56.90
2019-06-08T03:18:53.687Z,57.10
2019-06-08T03:19:53.896Z,57.30
2019-06-08T03:20:54.065Z,57.12
2019-06-08T03:21:54.276Z,57.20
2019-06-08T03:22:54.449Z,57.43
2019-06-08T03:23:54.625Z,57.33
2019-06-08T03:24:54.810Z,57.81
2019-06-08T03:25:55.008Z,58.52
2019-06-08T03:26:55.170Z,57.23
2019-06-08T03:27:55.375Z,57.40
2019-06-08T03:28:55.502Z,56.90
2019-06-08T03:29:55.680Z,56.79
2019-06-08T03:30:55.827Z,57.71
2019-06-08T03:31:57.466Z,57.71
2019-06-08T03:32:57.418Z,57.50
2019-06-08T03:33:56.745Z,57.50
2019-06-08T03:34:57.756Z,57.50
2019-06-08T03:35:58.413Z,57.50
2019-06-08T03:36:58.044Z,57.81
2019-06-08T03:37:57.150Z,57.93
2019-06-08T03:38:57.311Z,57.73
2019-06-08T03:39:57.462Z,58.45
2019-06-08T03:40:57.653Z,58.11
2019-06-08T03:41:57.826Z,59.56
2019-06-08T03:42:59.800Z,58.85
2019-06-08T03:43:58.198Z,58.34
2019-06-08T03:44:58.339Z,59.05
2019-06-08T03:45:58.532Z,58.54
2019-06-08T03:46:58.699Z,57.93
2019-06-08T03:47:58.863Z,58.85
2019-06-08T03:48:59.137Z,58.34
2019-06-08T03:49:59.188Z,57.73
2019-06-08T03:50:59.391Z,57.93
2019-06-08T03:51:59.562Z,58.65
2019-06-08T03:52:59.779Z,57.53
2019-06-08T03:54:00.010Z,57.93
2019-06-08T03:55:00.201Z,57.64
2019-06-08T03:56:00.437Z,57.03
2019-06-08T03:57:00.757Z,57.43
2019-06-08T03:58:00.792Z,57.73
2019-06-08T03:59:01.114Z,57.12
2019-06-08T04:00:01.142Z,58.27
2019-06-08T04:01:01.313Z,57.53
2019-06-08T04:02:01.522Z,57.23
2019-06-08T04:03:01.735Z,57.15
2019-06-08T04:04:01.942Z,57.15
2019-06-08T04:05:02.264Z,57.43
2019-06-08T04:06:02.290Z,57.86
2019-06-08T04:07:02.582Z,58.17
2019-06-08T04:08:02.634Z,58.37
2019-06-08T04:09:02.832Z,57.76
2019-06-08T04:10:02.981Z,57.76
2019-06-08T04:11:03.169Z,57.97
2019-06-08T04:12:03.375Z,58.37
2019-06-08T04:13:03.538Z,57.76
2019-06-08T04:14:03.697Z,58.17
2019-06-08T04:15:04.010Z,57.97
2019-06-08T04:16:04.050Z,57.66
2019-06-08T04:17:04.267Z,57.66
2019-06-08T04:18:04.365Z,58.06
2019-06-08T04:19:04.716Z,58.06
2019-06-08T04:20:11.134Z,57.46
2019-06-08T04:21:06.833Z,57.56
2019-06-08T04:22:04.988Z,57.05
2019-06-08T04:23:05.263Z,58.37
2019-06-08T04:24:05.342Z,59.28
2019-06-08T04:25:05.533Z,59.21
2019-06-08T04:26:05.704Z,58.80
2019-06-08T04:27:05.967Z,57.38
2019-06-08T04:28:06.232Z,58.37
2019-06-08T04:29:06.268Z,57.86
2019-06-08T04:30:06.443Z,58.09
2019-06-08T04:31:06.605Z,57.25
2019-06-08T04:32:06.795Z,57.25
2019-06-08T04:33:07.014Z,57.48
2019-06-08T04:34:07.189Z,57.15
2019-06-08T04:35:07.387Z,57.76
2019-06-08T04:36:07.555Z,57.25
2019-06-08T04:37:07.734Z,57.56
2019-06-08T04:38:07.906Z,57.89
2019-06-08T04:39:08.087Z,57.99
2019-06-08T04:40:09.095Z,57.99
2019-06-08T04:41:08.347Z,57.68
2019-06-08T04:42:08.589Z,58.29
2019-06-08T04:43:08.658Z,58.09
2019-06-08T04:44:08.831Z,57.59
2019-06-08T04:45:09.009Z,58.29
2019-06-08T04:46:09.189Z,57.68
2019-06-08T04:47:09.353Z,57.59
2019-06-08T04:48:09.999Z,58.50
2019-06-08T04:49:10.755Z,57.68
2019-06-08T04:50:21.822Z,58.50
2019-06-08T04:51:12.020Z,58.09
2019-06-08T04:52:10.475Z,58.40
2019-06-08T04:53:10.320Z,58.80
2019-06-08T04:54:14.291Z,57.18
2019-06-08T04:55:10.737Z,57.48
2019-06-08T04:56:10.987Z,57.68
2019-06-08T04:57:11.177Z,57.68
2019-06-08T04:58:11.436Z,57.68
2019-06-08T04:59:11.484Z,57.89
2019-06-08T05:00:13.232Z,57.59
2019-06-08T05:01:11.888Z,58.29
2019-06-08T05:02:11.933Z,59.21
2019-06-08T05:03:12.121Z,59.21
2019-06-08T05:04:12.364Z,57.79
2019-06-08T05:05:12.450Z,58.40
2019-06-08T05:06:12.641Z,59.31
2019-06-08T05:07:12.825Z,58.40
2019-06-08T05:08:13.039Z,58.09
2019-06-08T05:09:13.229Z,57.68
2019-06-08T05:10:13.409Z,58.70
2019-06-08T05:11:13.584Z,58.50
2019-06-08T05:12:13.802Z,58.91
2019-06-08T05:13:13.998Z,58.40
2019-06-08T05:14:14.234Z,59.54
2019-06-08T05:15:14.396Z,59.62
2019-06-08T05:16:14.590Z,59.84
2019-06-08T05:17:14.783Z,58.94
2019-06-08T05:18:15.000Z,59.82
2019-06-08T05:19:15.225Z,58.63
2019-06-08T05:20:15.442Z,59.72
2019-06-08T05:21:15.632Z,58.40
2019-06-08T05:22:15.809Z,58.20
2019-06-08T05:23:16.008Z,58.40
2019-06-08T05:24:16.441Z,59.31
2019-06-08T05:25:16.380Z,58.09
2019-06-08T05:26:16.758Z,57.81
2019-06-08T05:27:16.823Z,58.70
2019-06-08T05:28:17.025Z,57.79
2019-06-08T05:29:17.224Z,58.09
2019-06-08T05:30:17.501Z,57.79
2019-06-08T05:31:17.582Z,57.81
2019-06-08T05:32:17.798Z,57.79
2019-06-08T05:33:18.045Z,58.20
2019-06-08T05:34:18.143Z,57.68
2019-06-08T05:35:18.434Z,57.97
2019-06-08T05:36:18.557Z,57.35
2019-06-08T05:37:18.604Z,58.06
2019-06-08T05:38:18.779Z,57.38
2019-06-08T05:39:18.952Z,56.74
2019-06-08T05:40:19.167Z,58.58
2019-06-08T05:41:19.409Z,59.59
2019-06-08T05:42:19.554Z,57.05
2019-06-08T05:43:19.730Z,57.59
2019-06-08T05:44:19.937Z,57.86
2019-06-08T05:45:20.101Z,57.35
2019-06-08T05:46:20.280Z,56.95
2019-06-08T05:47:20.427Z,56.85
2019-06-08T05:48:20.687Z,57.46
2019-06-08T05:49:20.754Z,57.46
2019-06-08T05:50:20.947Z,57.05
2019-06-08T05:51:21.138Z,59.62
2019-06-08T05:52:21.543Z,58.60
2019-06-08T05:53:21.536Z,58.37
2019-06-08T05:54:21.763Z,58.20
2019-06-08T05:55:21.874Z,59.21
2019-06-08T05:56:22.046Z,57.86
2019-06-08T05:57:22.219Z,58.60
2019-06-08T05:58:23.034Z,57.48
2019-06-08T05:59:22.904Z,58.17
2019-06-08T06:00:23.120Z,58.47
2019-06-08T06:01:23.487Z,58.27
2019-06-08T06:02:23.345Z,58.17
2019-06-08T06:03:23.280Z,56.74
2019-06-08T06:04:23.487Z,57.25
2019-06-08T06:05:23.689Z,57.25
2019-06-08T06:06:23.905Z,58.65
2019-06-08T06:07:24.065Z,57.12
2019-06-08T06:08:24.350Z,58.54
2019-06-08T06:09:24.405Z,59.26
2019-06-08T06:10:24.613Z,57.84
2019-06-08T06:11:24.905Z,58.14
2019-06-08T06:12:25.001Z,56.82
2019-06-08T06:13:25.167Z,57.23
2019-06-08T06:14:25.411Z,56.65
2019-06-08T06:15:25.552Z,55.83
2019-06-08T06:16:25.641Z,55.83
2019-06-08T06:17:25.874Z,56.44
2019-06-08T06:18:25.926Z,56.85
2019-06-08T06:19:26.139Z,56.04
2019-06-08T06:20:26.318Z,56.44
2019-06-08T06:21:26.495Z,55.63
2019-06-08T06:22:26.866Z,55.43
2019-06-08T06:23:27.883Z,55.02
2019-06-08T06:24:27.074Z,55.93
2019-06-08T06:25:27.178Z,56.34
2019-06-08T06:26:27.370Z,57.23
2019-06-08T06:27:27.720Z,54.39
2019-06-08T06:28:27.868Z,55.91
2019-06-08T06:29:28.011Z,54.18
2019-06-08T06:30:28.059Z,56.21
2019-06-08T06:31:28.263Z,55.40
2019-06-08T06:32:28.478Z,55.20
2019-06-08T06:33:28.666Z,56.41
2019-06-08T06:34:28.865Z,54.79
2019-06-08T06:35:29.078Z,55.91
2019-06-08T06:36:29.288Z,55.91
2019-06-08T06:37:29.532Z,55.71
2019-06-08T06:38:29.749Z,57.10
2019-06-08T06:39:29.924Z,57.07
2019-06-08T06:40:30.137Z,56.46
2019-06-08T06:41:30.366Z,55.63
2019-06-08T06:42:30.537Z,53.60
2019-06-08T06:43:30.753Z,53.02
2019-06-08T06:44:30.947Z,54.74
2019-06-08T06:45:31.208Z,54.44
2019-06-08T06:46:31.459Z,54.21
2019-06-08T06:47:31.825Z,54.11
2019-06-08T06:48:31.835Z,53.50
2019-06-08T06:49:32.030Z,54.13
2019-06-08T06:50:32.093Z,54.21
2019-06-08T06:51:33.998Z,54.74
2019-06-08T06:52:33.489Z,54.84
2019-06-08T06:53:32.728Z,55.73
2019-06-08T06:54:32.811Z,56.03
2019-06-08T06:55:33.013Z,55.12
2019-06-08T06:56:33.222Z,53.83
2019-06-08T06:57:36.197Z,54.74
2019-06-08T06:58:34.669Z,54.31
2019-06-08T06:59:33.852Z,53.80
2019-06-08T07:00:34.084Z,53.80
2019-06-08T07:01:34.248Z,53.67
2019-06-08T07:02:34.503Z,53.60
2019-06-08T07:03:34.617Z,53.70
2019-06-08T07:04:34.846Z,54.74
2019-06-08T07:05:35.022Z,53.83
2019-06-08T07:06:35.215Z,54.33
2019-06-08T07:07:35.436Z,56.13
2019-06-08T07:08:35.631Z,56.95
2019-06-08T07:09:35.883Z,56.57
2019-06-08T07:10:35.960Z,58.26
2019-06-08T07:11:36.177Z,56.44
2019-06-08T07:12:36.369Z,55.93
2019-06-08T07:13:36.519Z,54.89
2019-06-08T07:14:36.718Z,55.83
2019-06-08T07:15:41.736Z,54.92
2019-06-08T07:16:39.006Z,55.32
2019-06-08T07:17:37.262Z,57.35
2019-06-08T07:18:37.434Z,57.15
2019-06-08T07:19:37.668Z,55.22
2019-06-08T07:20:37.710Z,55.65
2019-06-08T07:21:41.796Z,55.35
2019-06-08T07:22:39.081Z,56.46
2019-06-08T07:23:38.216Z,55.15
2019-06-08T07:24:38.409Z,55.85
2019-06-08T07:25:38.621Z,56.54
2019-06-08T07:26:38.841Z,54.92
2019-06-08T07:27:39.070Z,55.63
2019-06-08T07:28:39.224Z,56.44
2019-06-08T07:29:39.389Z,55.50
2019-06-08T07:30:39.604Z,54.69
2019-06-08T07:31:39.775Z,56.21
2019-06-08T07:32:40.008Z,55.19
2019-06-08T07:33:40.149Z,53.67
2019-06-08T07:34:41.235Z,53.98
2019-06-08T07:35:41.489Z,55.60
2019-06-08T07:36:40.636Z,53.78
2019-06-08T07:37:40.830Z,56.59
2019-06-08T07:38:41.016Z,53.96
2019-06-08T07:39:41.171Z,54.16
2019-06-08T07:40:41.371Z,53.67
2019-06-08T07:41:41.544Z,54.16
2019-06-08T07:42:42.025Z,53.14
2019-06-08T07:43:41.963Z,53.78
2019-06-08T07:44:42.163Z,55.37
2019-06-08T07:45:42.375Z,53.02
2019-06-08T07:46:42.578Z,53.63
2019-06-08T07:47:42.832Z,53.63
2019-06-08T07:48:42.897Z,53.22
2019-06-08T07:49:43.058Z,52.01
2019-06-08T07:50:43.397Z,53.55
2019-06-08T07:51:57.646Z,54.05
2019-06-08T07:52:45.713Z,53.63
2019-06-08T07:53:43.795Z,53.72
2019-06-08T07:54:43.951Z,52.89
2019-06-08T07:55:45.402Z,53.90
2019-06-08T07:56:45.364Z,54.13
2019-06-08T07:57:44.518Z,52.99
2019-06-08T07:58:44.806Z,52.92
2019-06-08T07:59:44.869Z,54.18
2019-06-08T08:00:45.075Z,53.72
2019-06-08T08:01:45.322Z,54.23
2019-06-08T08:02:45.549Z,54.64
2019-06-08T08:03:45.852Z,53.93
2019-06-08T08:04:45.925Z,53.42
2019-06-08T08:05:46.180Z,54.16
2019-06-08T08:06:46.292Z,55.35
2019-06-08T08:07:48.318Z,53.52
2019-06-08T08:08:46.584Z,54.44
2019-06-08T08:09:46.827Z,52.92
2019-06-08T08:10:48.268Z,55.88
2019-06-08T08:11:48.482Z,53.65
2019-06-08T08:12:49.218Z,54.84
2019-06-08T08:13:50.139Z,52.84
2019-06-08T08:14:48.732Z,53.63
2019-06-08T08:15:49.073Z,49.87
2019-06-08T08:16:48.854Z,51.32
2019-06-08T08:17:49.067Z,53.83
2019-06-08T08:18:49.028Z,51.61
2019-06-08T08:19:49.000Z,53.75
2019-06-08T08:20:51.059Z,53.47
2019-06-08T08:21:51.882Z,52.69
2019-06-08T08:22:53.979Z,53.63
2019-06-08T08:23:51.759Z,53.80
2019-06-08T08:24:53.767Z,53.80
2019-06-08T08:25:51.452Z,53.70
2019-06-08T08:26:51.479Z,54.00
2019-06-08T08:27:50.736Z,55.32
2019-06-08T08:28:53.131Z,54.00
2019-06-08T08:29:51.616Z,54.51
2019-06-08T08:30:52.279Z,53.60
2019-06-08T08:31:51.821Z,55.60
2019-06-08T08:32:52.577Z,53.90
2019-06-08T08:33:52.546Z,54.58
2019-06-08T08:34:53.772Z,53.88
2019-06-08T08:35:52.272Z,52.08
2019-06-08T08:36:53.667Z,54.41
2019-06-08T08:37:55.492Z,53.60
2019-06-08T08:38:54.433Z,57.14
2019-06-08T08:39:53.598Z,55.80
2019-06-08T08:40:55.054Z,53.47
2019-06-08T08:41:56.830Z,51.68
2019-06-08T08:42:55.715Z,53.80
2019-06-08T08:43:54.351Z,53.70
2019-06-08T08:44:54.202Z,57.69
2019-06-08T08:45:53.996Z,52.74
2019-06-08T08:46:54.744Z,53.65
2019-06-08T08:48:10.341Z,51.71
2019-06-08T08:49:06.906Z,51.55
2019-06-08T08:49:56.767Z,52.06
2019-06-08T08:50:54.607Z,53.65
2019-06-08T08:51:54.728Z,52.11
2019-06-08T08:52:56.218Z,51.20
2019-06-08T08:53:59.976Z,51.91
2019-06-08T08:54:59.318Z,51.40
2019-06-08T08:55:59.626Z,54.53
2019-06-08T08:57:00.760Z,52.11
2019-06-08T08:57:59.411Z,53.22
2019-06-08T08:58:59.177Z,53.14
2019-06-08T09:00:00.490Z,51.05
2019-06-08T09:01:01.533Z,51.81
2019-06-08T09:02:01.061Z,52.11
2019-06-08T09:03:17.141Z,51.91
2019-06-08T09:04:03.026Z,51.40
2019-06-08T09:05:02.055Z,53.52
2019-06-08T09:06:01.042Z,51.63
2019-06-08T09:07:05.689Z,51.86
2019-06-08T09:08:02.070Z,52.03
2019-06-08T09:09:01.733Z,51.32
2019-06-08T09:10:01.501Z,50.70
2019-06-08T09:11:01.993Z,51.10
2019-06-08T09:12:00.970Z,52.51
2019-06-08T09:13:02.946Z,52.94
2019-06-08T09:14:05.152Z,51.73
2019-06-08T09:15:02.660Z,52.21
2019-06-08T09:16:03.463Z,51.05
2019-06-08T09:17:02.161Z,50.90
2019-06-08T09:18:03.344Z,49.32
2019-06-08T09:19:02.885Z,48.14
2019-06-08T09:20:03.634Z,48.99
2019-06-08T09:21:02.852Z,47.63
2019-06-08T09:22:03.660Z,50.27
2019-06-08T09:23:11.609Z,49.72
2019-06-08T09:24:04.077Z,51.61
2019-06-08T09:25:04.286Z,47.94
2019-06-08T09:26:09.032Z,46.18
2019-06-08T09:27:04.250Z,47.39
2019-06-08T09:28:04.481Z,49.52
2019-06-08T09:29:06.682Z,48.93
2019-06-08T09:30:04.792Z,50.09
2019-06-08T09:31:04.116Z,51.30
2019-06-08T09:32:03.535Z,53.65
2019-06-08T09:33:04.182Z,51.89
2019-06-08T09:34:09.185Z,51.28
2019-06-08T09:35:04.918Z,51.66
2019-06-08T09:36:05.020Z,51.66
2019-06-08T09:37:05.072Z,51.07
2019-06-08T09:38:05.057Z,51.25
2019-06-08T09:39:05.383Z,50.95
2019-06-08T09:40:05.440Z,49.96
2019-06-08T09:41:05.327Z,51.56
2019-06-08T09:42:05.049Z,49.99
2019-06-08T09:43:10.380Z,47.25
2019-06-08T09:44:08.714Z,46.60
2019-06-08T09:45:08.577Z,47.36
2019-06-08T09:46:06.184Z,48.85
2019-06-08T09:47:11.969Z,46.07
2019-06-08T09:48:09.249Z,45.79
2019-06-08T09:49:11.017Z,46.49
2019-06-08T09:50:09.324Z,47.16
2019-06-08T09:51:06.369Z,46.44
2019-06-08T09:52:08.511Z,45.95
2019-06-08T09:53:23.025Z,46.68
2019-06-08T09:54:11.829Z,50.63
2019-06-08T09:55:08.936Z,46.64
2019-06-08T09:56:09.599Z,46.15
2019-06-08T09:57:09.118Z,42.90
2019-06-08T09:58:11.244Z,46.14
2019-06-08T09:59:10.677Z,49.25
2019-06-08T10:00:17.225Z,45.55
2019-06-08T10:01:11.559Z,47.51
2019-06-08T10:02:12.542Z,47.49
2019-06-08T10:03:09.699Z,46.98
2019-06-08T10:04:09.192Z,49.15
2019-06-08T10:05:08.575Z,48.97
2019-06-08T10:06:11.570Z,48.94
2019-06-08T10:07:09.117Z,49.04
2019-06-08T10:08:09.529Z,49.16
2019-06-08T10:09:09.364Z,50.63
2019-06-08T10:10:09.823Z,48.69
2019-06-08T10:11:09.931Z,48.74
2019-06-08T10:12:09.995Z,48.66
2019-06-08T10:13:10.309Z,49.62
2019-06-08T10:14:12.034Z,49.74
2019-06-08T10:15:10.414Z,51.48
2019-06-08T10:16:10.534Z,51.07
2019-06-08T10:17:10.797Z,51.38
2019-06-08T10:18:10.024Z,51.98
2019-06-08T10:19:10.527Z,49.74
2019-06-08T10:20:11.258Z,50.87
2019-06-08T10:21:10.443Z,49.92
2019-06-08T10:22:10.506Z,51.33
2019-06-08T10:23:27.105Z,51.43
2019-06-08T10:24:12.899Z,50.30
2019-06-08T10:25:11.349Z,49.41
2019-06-08T10:26:12.309Z,49.19
2019-06-08T10:27:11.989Z,48.79
2019-06-08T10:28:15.892Z,50.68
2019-06-08T10:29:13.841Z,49.42
2019-06-08T10:30:11.963Z,48.06
2019-06-08T10:31:12.170Z,46.73
2019-06-08T10:32:12.726Z,45.71
2019-06-08T10:33:12.581Z,45.49
2019-06-08T10:34:12.755Z,46.01
2019-06-08T10:35:12.966Z,48.83
2019-06-08T10:36:13.179Z,46.15
2019-06-08T10:37:13.798Z,44.18
2019-06-08T10:38:13.565Z,46.10
2019-06-08T10:39:13.746Z,48.38
2019-06-08T10:40:13.940Z,48.41
2019-06-08T10:41:18.983Z,50.10
2019-06-08T10:42:18.010Z,49.11
2019-06-08T10:43:14.547Z,48.91
2019-06-08T10:44:14.751Z,49.67
2019-06-08T10:45:15.238Z,47.53
2019-06-08T10:46:19.889Z,47.13
2019-06-08T10:47:16.262Z,46.10
2019-06-08T10:48:17.773Z,49.25
2019-06-08T10:49:18.381Z,46.78
2019-06-08T10:50:16.168Z,48.14
2019-06-08T10:51:18.175Z,49.57
2019-06-08T10:52:20.068Z,48.66
2019-06-08T10:53:16.743Z,48.89
2019-06-08T10:54:17.532Z,49.07
2019-06-08T10:55:18.149Z,48.94
2019-06-08T10:56:18.911Z,50.60
2019-06-08T10:57:18.298Z,47.08
2019-06-08T10:58:19.367Z,48.44
2019-06-08T10:59:18.650Z,48.99
2019-06-08T11:00:23.507Z,49.27
2019-06-08T11:01:19.653Z,49.39
2019-06-08T11:02:19.016Z,49.21
2019-06-08T11:03:19.017Z,49.82
2019-06-08T11:04:18.695Z,48.66
2019-06-08T11:05:19.443Z,51.10
2019-06-08T11:06:18.981Z,48.49
2019-06-08T11:07:19.887Z,49.44
2019-06-08T11:08:19.101Z,51.13
2019-06-08T11:09:19.388Z,49.52
2019-06-08T11:10:19.407Z,49.82
2019-06-08T11:11:20.543Z,49.19
2019-06-08T11:12:20.823Z,48.99
2019-06-08T11:13:19.993Z,49.15
2019-06-08T11:14:22.659Z,48.44
2019-06-08T11:15:21.441Z,48.96
2019-06-08T11:16:20.620Z,49.55
2019-06-08T11:17:20.843Z,46.46
2019-06-08T11:18:21.060Z,47.69
2019-06-08T11:19:22.152Z,46.48
2019-06-08T11:20:21.353Z,48.07
2019-06-08T11:21:21.577Z,46.09
2019-06-08T11:22:21.686Z,45.87
2019-06-08T11:23:21.936Z,45.54
2019-06-08T11:24:25.144Z,45.39
2019-06-08T11:25:23.188Z,46.92
2019-06-08T11:26:24.501Z,46.04
2019-06-08T11:27:23.491Z,45.97
2019-06-08T11:28:22.685Z,46.30
2019-06-08T11:29:23.015Z,44.98
2019-06-08T11:30:26.689Z,42.60
2019-06-08T11:31:27.899Z,42.49
2019-06-08T11:32:23.436Z,42.65
2019-06-08T11:33:23.638Z,41.83
2019-06-08T11:34:23.872Z,42.76
2019-06-08T11:35:23.937Z,45.53
2019-06-08T11:36:24.150Z,43.93
2019-06-08T11:37:24.316Z,46.20
2019-06-08T11:38:24.481Z,45.67
2019-06-08T11:39:25.845Z,49.63
2019-06-08T11:40:27.700Z,47.36
2019-06-08T11:41:27.693Z,50.08
2019-06-08T11:42:28.335Z,46.66
2019-06-08T11:43:28.584Z,47.61
2019-06-08T11:44:27.640Z,49.02
2019-06-08T11:45:25.792Z,46.22
2019-06-08T11:46:28.191Z,44.79
2019-06-08T11:47:27.818Z,44.90
2019-06-08T11:48:28.514Z,43.93
2019-06-08T11:49:27.928Z,42.85
2019-06-08T11:50:27.745Z,45.54
2019-06-08T11:51:29.611Z,43.76
2019-06-08T11:52:28.540Z,44.68
2019-06-08T11:53:28.820Z,44.00
2019-06-08T11:54:36.547Z,43.86
2019-06-08T11:55:29.492Z,44.28
2019-06-08T11:56:27.636Z,44.28
2019-06-08T11:57:28.322Z,44.38
2019-06-08T11:58:30.792Z,44.79
2019-06-08T11:59:28.561Z,49.22
2019-06-08T12:00:31.031Z,48.35
2019-06-08T12:01:29.459Z,46.98
2019-06-08T12:02:28.640Z,47.89
2019-06-08T12:03:30.464Z,47.42
2019-06-08T12:04:30.086Z,48.48
2019-06-08T12:05:29.252Z,45.83
2019-06-08T12:06:29.418Z,45.22
2019-06-08T12:07:30.379Z,45.60
2019-06-08T12:08:30.718Z,45.47
2019-06-08T12:09:29.864Z,48.55
2019-06-08T12:10:30.176Z,48.55
2019-06-08T12:11:30.561Z,47.26
2019-06-08T12:12:30.548Z,48.75
2019-06-08T12:13:30.705Z,47.92
2019-06-08T12:14:33.608Z,48.97
2019-06-08T12:15:31.137Z,50.28
2019-06-08T12:16:31.353Z,46.45
2019-06-08T12:17:31.499Z,46.87
2019-06-08T12:18:31.662Z,46.04
2019-06-08T12:19:31.994Z,46.09
2019-06-08T12:20:32.066Z,46.64
2019-06-08T12:21:32.223Z,48.77
2019-06-08T12:22:32.345Z,47.59
2019-06-08T12:23:33.503Z,47.79
2019-06-08T12:24:41.338Z,50.38
2019-06-08T12:25:37.699Z,51.09
2019-06-08T12:26:33.177Z,49.07
2019-06-08T12:27:36.610Z,47.91
2019-06-08T12:28:35.491Z,49.65
2019-06-08T12:29:33.617Z,49.57
2019-06-08T12:30:33.778Z,49.57
2019-06-08T12:31:34.006Z,50.17
2019-06-08T12:32:34.197Z,50.50
2019-06-08T12:33:34.359Z,51.79
2019-06-08T12:34:34.525Z,51.91
2019-06-08T12:35:34.683Z,53.12
2019-06-08T12:36:34.880Z,51.43
2019-06-08T12:37:35.043Z,51.43
2019-06-08T12:38:35.239Z,51.56
2019-06-08T12:39:35.404Z,51.33
2019-06-08T12:40:37.849Z,51.93
2019-06-08T12:41:37.784Z,51.20
2019-06-08T12:42:38.006Z,49.87
2019-06-08T12:43:38.415Z,48.96
2019-06-08T12:44:38.248Z,48.52
2019-06-08T12:45:38.129Z,49.44
2019-06-08T12:46:38.377Z,50.23
2019-06-08T12:47:38.131Z,48.92
2019-06-08T12:48:38.466Z,49.30
2019-06-08T12:49:40.411Z,50.33
2019-06-08T12:50:38.661Z,48.32
2019-06-08T12:51:40.137Z,48.52
2019-06-08T12:52:39.144Z,48.69
2019-06-08T12:53:39.005Z,46.37
2019-06-08T12:54:38.183Z,45.59